Time;durP1;ratioP1;P1;durP2;ratioP2;P2;SDS_P1;SDS_P2;PMS_P1;PMS_P2;Temp;Humidity;BMP_temperature;BMP_pressure;BME280_temperature;BME280_humidity;BME280_pressure;Samples;Min_cycle;Max_cycle;Signal;HPM_P1;HPM_P2
2021/12/03 00:01:55;;;;;;;39.22;26.90;;;6.10;99.90;;;;;;4939420;29;20043;-87
2021/12/03 00:04:31;;;;;;;37.85;23.58;;;6.20;99.90;;;;;;4958459;29;20095;-89
2021/12/03 00:06:58;;;;;;;43.10;27.23;;;6.10;99.90;;;;;;4960268;29;20058;-91
2021/12/03 00:09:26;;;;;;;49.08;27.70;;;5.80;99.90;;;;;;4942538;29;20646;-83
2021/12/03 00:11:54;;;;;;;40.28;26.35;;;6.10;99.90;;;;;;4922210;29;20075;-84
2021/12/03 00:14:21;;;;;;;38.70;25.17;;;6.20;99.90;;;;;;4955116;29;20077;-83
2021/12/03 00:16:48;;;;;;;42.55;27.42;;;6.00;99.90;;;;;;4937912;29;20091;-83
2021/12/03 00:19:16;;;;;;;40.38;25.30;;;6.20;99.90;;;;;;4922180;29;20055;-84
2021/12/03 00:21:53;;;;;;;42.05;25.10;;;5.90;99.90;;;;;;4953577;29;20436;-82
2021/12/03 00:24:51;;;;;;;45.08;27.33;;;5.70;99.90;;;;;;4923944;28;20043;-82
2021/12/03 00:27:18;;;;;;;45.20;26.67;;;5.80;99.90;;;;;;4976533;28;20046;-83
2021/12/03 00:29:46;;;;;;;44.00;26.40;;;6.10;99.90;;;;;;4976153;28;20042;-83
2021/12/03 00:32:13;;;;;;;36.33;24.48;;;6.00;99.90;;;;;;4992842;28;20065;-84
2021/12/03 00:34:40;;;;;;;41.50;25.92;;;6.00;99.90;;;;;;4959319;28;20046;-80
2021/12/03 00:37:08;;;;;;;39.38;25.90;;;6.10;99.90;;;;;;4975853;28;20082;-82
2021/12/03 00:39:35;;;;;;;43.08;27.67;;;5.90;99.90;;;;;;4959792;28;20097;-83
2021/12/03 00:42:04;;;;;;;43.50;25.88;;;5.80;99.90;;;;;;4976155;28;20121;-82
2021/12/03 00:44:31;;;;;;;38.47;25.50;;;6.00;99.90;;;;;;4975943;28;20038;-84
2021/12/03 00:46:59;;;;;;;38.60;25.05;;;5.90;99.90;;;;;;4976493;28;20451;-89
2021/12/03 00:49:27;;;;;;;41.28;23.80;;;5.70;99.90;;;;;;4995288;28;20093;-89
2021/12/03 00:51:54;;;;;;;36.00;23.60;;;6.00;99.90;;;;;;4977832;28;20124;-89
2021/12/03 00:58:43;;;;;;;;;;;5.80;99.90;;;;;;4995182;28;20387;-85
2021/12/03 01:05:31;;;;;;;35.53;23.13;;;6.10;99.90;;;;;;4993512;28;20579;-82
2021/12/03 01:07:59;;;;;;;40.03;24.38;;;6.10;99.90;;;;;;4975591;28;20462;-85
2021/12/03 01:10:27;;;;;;;39.40;26.65;;;6.00;99.90;;;;;;4992404;28;20045;-85
2021/12/03 01:12:55;;;;;;;43.40;25.38;;;5.90;99.90;;;;;;4992497;28;20415;-82
2021/12/03 01:15:27;;;;;;;43.63;26.75;;;5.90;99.90;;;;;;4992196;28;20129;-80
2021/12/03 01:17:54;;;;;;;37.75;24.65;;;5.90;99.90;;;;;;4974898;28;20144;-83
2021/12/03 01:20:22;;;;;;;34.00;21.70;;;6.00;99.90;;;;;;4992525;28;20061;-82
2021/12/03 01:22:52;;;;;;;37.47;24.67;;;6.10;99.90;;;;;;4975476;28;20047;-85
2021/12/03 01:25:21;;;;;;;37.05;24.23;;;6.00;99.90;;;;;;4984866;28;20054;-85
2021/12/03 01:27:50;;;;;;;33.50;22.13;;;6.20;99.90;;;;;;4955601;28;20049;-85
2021/12/03 01:30:21;;;;;;;32.05;23.00;;;5.90;99.90;;;;;;4939968;28;20082;-87
2021/12/03 01:32:55;;;;;;;31.02;22.38;;;5.60;99.90;;;;;;4941219;28;20057;-85
2021/12/03 01:35:23;;;;;;;33.78;23.42;;;5.90;99.90;;;;;;4943093;28;20200;-90
2021/12/03 01:37:51;;;;;;;34.80;22.33;;;6.20;99.90;;;;;;4941890;28;20051;-89
2021/12/03 01:40:21;;;;;;;39.60;25.23;;;6.40;99.90;;;;;;4940750;28;20066;-85
2021/12/03 01:42:50;;;;;;;41.67;27.73;;;6.20;99.90;;;;;;4940687;28;20050;-88
2021/12/03 01:45:24;;;;;;;41.58;27.05;;;6.10;99.90;;;;;;4939882;28;20594;-85
2021/12/03 01:47:53;;;;;;;33.33;22.05;;;6.30;99.90;;;;;;4940532;28;20150;-87
2021/12/03 01:50:33;;;;;;;34.13;22.13;;;6.50;99.90;;;;;;4939954;28;20097;-88
2021/12/03 01:53:06;;;;;;;36.35;24.60;;;6.50;99.90;;;;;;4941021;28;20102;-87
2021/12/03 01:55:37;;;;;;;29.83;19.15;;;6.60;99.90;;;;;;4940618;28;20050;-87
2021/12/03 01:58:20;;;;;;;35.83;23.10;;;6.10;99.90;;;;;;4940129;28;20047;-87
2021/12/03 02:01:16;;;;;;;29.75;19.85;;;6.10;99.90;;;;;;4973044;28;20070;-86
2021/12/03 02:03:53;;;;;;;32.78;21.05;;;6.40;99.90;;;;;;4956367;28;20057;-85
2021/12/03 02:06:26;;;;;;;29.40;21.13;;;6.20;99.90;;;;;;4940261;28;20454;-86
2021/12/03 02:09:15;;;;;;;20.30;14.75;;;6.00;99.90;;;;;;4941418;28;20085;-89
2021/12/03 02:11:56;;;;;;;32.20;21.55;;;5.80;99.90;;;;;;4942784;28;20059;-90
2021/12/03 02:14:25;;;;;;;33.90;21.75;;;6.00;99.90;;;;;;4944864;28;20098;-90
2021/12/03 02:20:17;;;;;;;34.50;21.13;;;6.00;99.90;;;;;;5032597;23;20483;-91
2021/12/03 02:22:50;;;;;;;36.67;21.55;;;6.20;99.90;;;;;;4942394;28;20047;-89
2021/12/03 02:26:07;;;;;;;30.40;21.55;;;6.10;99.90;;;;;;4962345;28;20109;-90
2021/12/03 02:28:40;;;;;;;36.05;20.90;;;6.30;99.90;;;;;;4918052;29;20059;-90
2021/12/03 02:31:07;;;;;;;32.08;20.48;;;6.40;99.90;;;;;;4950092;23;20494;-94
2021/12/03 02:36:31;;;;;;;29.70;20.10;;;6.30;99.90;;;;;;4998505;23;20046;-88
2021/12/03 02:39:20;;;;;;;26.65;17.33;;;6.40;99.90;;;;;;4962205;28;20054;-89
2021/12/03 02:42:17;;;;;;;32.38;19.77;;;6.20;99.90;;;;;;4964008;28;20046;-90
2021/12/03 02:44:52;;;;;;;26.67;19.02;;;6.10;99.90;;;;;;4963850;28;20054;-91
2021/12/03 02:47:20;;;;;;;27.10;17.60;;;6.30;99.90;;;;;;4962465;28;20050;-91
2021/12/03 02:50:04;;;;;;;28.13;19.05;;;6.20;99.90;;;;;;4962772;28;20050;-90
2021/12/03 02:52:51;;;;;;;29.05;19.27;;;6.20;99.90;;;;;;4968543;23;20050;-88
2021/12/03 02:55:19;;;;;;;27.35;19.45;;;6.30;99.90;;;;;;4961224;28;20614;-87
2021/12/03 02:58:38;;;;;;;28.77;18.85;;;6.30;99.90;;;;;;4976530;28;20047;-87
2021/12/03 03:01:34;;;;;;;25.48;18.77;;;6.40;99.90;;;;;;4978953;28;20148;-85
2021/12/03 03:04:19;;;;;;;30.45;18.60;;;6.50;99.90;;;;;;4949264;28;20060;-89
2021/12/03 03:06:46;;;;;;;27.05;18.73;;;6.50;99.90;;;;;;4978795;28;20042;-85
2021/12/03 03:09:14;;;;;;;27.33;18.45;;;6.60;99.90;;;;;;4963131;28;20431;-84
2021/12/03 03:12:07;;;;;;;26.90;18.10;;;6.70;99.90;;;;;;4978433;28;20089;-86
2021/12/03 03:15:10;;;;;;;28.60;18.10;;;6.70;99.90;;;;;;4995725;28;20070;-86
2021/12/03 03:17:38;;;;;;;29.05;17.55;;;6.70;99.90;;;;;;4944330;28;20118;-86
2021/12/03 03:20:06;;;;;;;24.63;17.20;;;6.70;99.90;;;;;;4977870;28;20101;-89
2021/12/03 03:22:36;;;;;;;24.92;17.77;;;6.80;99.90;;;;;;4962416;28;20050;-85
2021/12/03 03:25:13;;;;;;;28.35;18.23;;;6.80;99.90;;;;;;4978204;28;20050;-84
2021/12/03 03:27:41;;;;;;;26.23;18.17;;;6.90;99.90;;;;;;4977979;28;20046;-87
2021/12/03 03:30:16;;;;;;;24.77;17.80;;;7.00;99.90;;;;;;4962098;28;20109;-85
2021/12/03 03:32:44;;;;;;;28.85;18.15;;;6.90;99.90;;;;;;4996498;28;20401;-90
2021/12/03 03:35:26;;;;;;;25.65;17.88;;;6.80;99.90;;;;;;4956722;28;20066;-87
2021/12/03 03:38:18;;;;;;;26.60;19.25;;;6.40;99.90;;;;;;4962608;28;20073;-86
2021/12/03 03:40:48;;;;;;;27.60;19.60;;;6.30;99.90;;;;;;4978304;28;20038;-83
2021/12/03 03:43:16;;;;;;;31.95;18.67;;;6.50;99.90;;;;;;4962288;28;20101;-85
2021/12/03 03:45:48;;;;;;;25.80;18.00;;;6.50;99.90;;;;;;4962406;28;20117;-84
2021/12/03 03:48:18;;;;;;;26.80;19.27;;;6.60;99.90;;;;;;4962978;28;20113;-87
2021/12/03 03:51:15;;;;;;;25.95;17.25;;;6.70;99.90;;;;;;4995650;28;20410;-86
2021/12/03 03:53:43;;;;;;;24.27;17.85;;;6.90;99.90;;;;;;4977793;28;20434;-85
2021/12/03 04:00:45;;;;;;;24.35;17.80;;;6.80;99.90;;;;;;4997679;28;20101;-82
2021/12/03 04:03:31;;;;;;;27.77;17.33;;;6.80;99.90;;;;;;4989240;28;20046;-83
2021/12/03 04:06:39;;;;;;;28.55;16.98;;;6.60;99.90;;;;;;4936249;29;20122;-88
2021/12/03 04:10:28;;;;;;;28.75;17.98;;;6.70;99.90;;;;;;4869534;29;20052;-86
2021/12/03 04:12:58;;;;;;;28.65;19.67;;;6.40;99.90;;;;;;4898982;28;20055;-89
2021/12/03 04:15:26;;;;;;;28.35;19.05;;;6.50;99.90;;;;;;4967508;28;20097;-87
2021/12/03 04:17:53;;;;;;;24.63;15.90;;;6.50;99.90;;;;;;4980884;28;20043;-87
2021/12/03 04:20:21;;;;;;;31.40;18.20;;;6.20;99.90;;;;;;4980140;28;20064;-87
2021/12/03 04:22:49;;;;;;;22.95;16.42;;;6.40;99.90;;;;;;4965961;28;20058;-91
2021/12/03 04:25:29;;;;;;;26.33;16.38;;;6.40;99.90;;;;;;4968775;28;20054;-91
2021/12/03 04:27:56;;;;;;;29.67;16.30;;;6.20;99.90;;;;;;4966843;28;20114;-88
2021/12/03 04:30:27;;;;;;;25.55;16.75;;;6.50;99.90;;;;;;4964464;28;20137;-87
2021/12/03 04:33:07;;;;;;;24.73;15.48;;;6.70;99.90;;;;;;4964873;28;20046;-87
2021/12/03 04:36:27;;;;;;;25.23;17.05;;;6.50;99.90;;;;;;4964259;28;20410;-93
2021/12/03 04:38:54;;;;;;;22.27;17.17;;;6.40;99.90;;;;;;4977945;28;20057;-86
2021/12/03 04:41:37;;;;;;;22.67;15.57;;;6.60;99.90;;;;;;4979149;28;20046;-84
2021/12/03 04:44:07;;;;;;;22.58;15.07;;;6.60;99.90;;;;;;4976575;28;20045;-85
2021/12/03 04:46:35;;;;;;;25.63;17.33;;;6.80;99.90;;;;;;4959930;28;20050;-86
2021/12/03 04:49:41;;;;;;;23.42;16.65;;;6.80;99.90;;;;;;4981665;28;20418;-83
2021/12/03 04:52:33;;;;;;;25.50;17.33;;;6.60;99.90;;;;;;4994451;28;20469;-88
2021/12/03 04:55:01;;;;;;;23.90;17.17;;;6.50;99.90;;;;;;4980230;28;20050;-88
2021/12/03 05:01:41;;;;;;;22.20;15.50;;;6.80;99.90;;;;;;4997487;28;20036;-93
2021/12/03 05:08:31;;;;;;;24.13;15.23;;;7.00;99.90;;;;;;4995558;28;20592;-84
2021/12/03 05:11:02;;;;;;;23.70;16.50;;;6.70;99.90;;;;;;4961917;28;20050;-89
2021/12/03 05:13:33;;;;;;;26.23;16.85;;;6.70;99.90;;;;;;4960989;28;20113;-84
2021/12/03 05:16:03;;;;;;;26.70;18.10;;;6.60;99.90;;;;;;4959022;28;20050;-86
2021/12/03 05:18:31;;;;;;;31.20;18.13;;;6.70;99.90;;;;;;4961752;28;20054;-89
2021/12/03 05:21:04;;;;;;;24.05;17.75;;;6.80;99.90;;;;;;4961255;28;20058;-89
2021/12/03 05:23:32;;;;;;;28.00;17.17;;;6.70;99.90;;;;;;4977828;28;20077;-86
2021/12/03 05:26:00;;;;;;;26.80;18.52;;;6.80;99.90;;;;;;4978262;28;20046;-86
2021/12/03 05:28:27;;;;;;;24.85;16.85;;;6.70;99.90;;;;;;4978133;28;20073;-88
2021/12/03 05:35:40;;;;;;;25.15;15.48;;;6.90;99.90;;;;;;4994557;28;20112;-85
2021/12/03 05:43:06;;;;;;;23.65;15.50;;;6.60;99.90;;;;;;4933822;29;19922;-85
2021/12/03 05:45:35;;;;;;;25.73;15.88;;;6.60;99.90;;;;;;4917817;29;20058;-88
2021/12/03 05:48:06;;;;;;;23.88;16.40;;;6.70;99.90;;;;;;4932718;29;20122;-83
2021/12/03 05:50:34;;;;;;;36.05;21.63;;;6.80;99.90;;;;;;4932492;29;20558;-81
2021/12/03 05:53:01;;;;;;;94.15;50.35;;;7.00;99.90;;;;;;4916164;29;20059;-81
2021/12/03 05:55:29;;;;;;;34.85;21.02;;;7.20;99.90;;;;;;4932355;29;20063;-83
2021/12/03 05:57:56;;;;;;;27.90;14.95;;;7.10;99.90;;;;;;4932083;29;20050;-84
2021/12/03 06:00:30;;;;;;;23.73;16.42;;;6.70;99.90;;;;;;4916978;29;20123;-85
2021/12/03 06:02:59;;;;;;;25.85;18.00;;;6.60;99.90;;;;;;4917017;29;20071;-85
2021/12/03 06:05:28;;;;;;;52.55;29.15;;;7.00;99.90;;;;;;4916636;29;20059;-79
2021/12/03 06:07:56;;;;;;;29.55;18.70;;;7.30;99.90;;;;;;4935498;29;20497;-86
2021/12/03 06:10:25;;;;;;;22.38;15.02;;;7.30;99.90;;;;;;4935816;29;20097;-84
2021/12/03 06:12:53;;;;;;;29.30;15.57;;;7.30;99.90;;;;;;4952220;29;20047;-85
2021/12/03 06:15:21;;;;;;;21.27;14.05;;;7.40;99.90;;;;;;4943185;28;20053;-84
2021/12/03 06:17:49;;;;;;;19.17;13.75;;;7.00;99.90;;;;;;4994775;28;20164;-81
2021/12/03 06:20:17;;;;;;;22.95;15.10;;;6.90;99.90;;;;;;4995003;28;20390;-82
2021/12/03 06:22:45;;;;;;;25.00;16.67;;;7.10;99.90;;;;;;4978720;28;20038;-88
2021/12/03 06:25:17;;;;;;;26.35;15.90;;;7.20;99.90;;;;;;4983639;28;20066;-84
2021/12/03 06:27:45;;;;;;;20.40;15.95;;;7.40;99.90;;;;;;4989848;28;20046;-83
2021/12/03 06:30:16;;;;;;;26.05;15.27;;;7.40;99.90;;;;;;4974093;28;20098;-89
2021/12/03 06:32:43;;;;;;;23.33;15.30;;;7.60;99.90;;;;;;4975052;28;20046;-89
2021/12/03 06:35:16;;;;;;;33.30;20.50;;;7.70;99.90;;;;;;4969841;28;20153;-86
2021/12/03 06:37:44;;;;;;;64.03;35.15;;;8.00;99.90;;;;;;4996551;28;20046;-89
2021/12/03 06:40:15;;;;;;;26.83;17.05;;;8.30;99.90;;;;;;4982340;28;20046;-85
2021/12/03 06:42:43;;;;;;;;;;;8.20;99.90;;;;;;4964738;28;20169;-84
2021/12/03 06:45:12;;;;;;;21.88;13.32;;;8.10;99.90;;;;;;4998516;28;19987;-90
2021/12/03 06:47:39;;;;;;;25.85;13.60;;;8.00;99.90;;;;;;4996932;28;20046;-87
2021/12/03 06:50:10;;;;;;;19.38;12.73;;;8.00;99.90;;;;;;4980882;28;20116;-85
2021/12/03 06:52:40;;;;;;;19.48;11.98;;;8.10;99.90;;;;;;4964417;28;20093;-84
2021/12/03 06:55:11;;;;;;;21.10;13.00;;;8.20;99.90;;;;;;4978595;28;20054;-84
2021/12/03 06:57:41;;;;;;;15.65;11.43;;;8.10;99.90;;;;;;4963708;28;20042;-86
2021/12/03 07:00:12;;;;;;;20.88;14.00;;;8.30;99.90;;;;;;4978896;28;20050;-84
2021/12/03 07:02:41;;;;;;;17.13;12.98;;;8.20;99.90;;;;;;4962459;28;20406;-83
2021/12/03 07:05:09;;;;;;;22.45;15.05;;;8.00;99.90;;;;;;4978504;28;20042;-84
2021/12/03 07:07:37;;;;;;;17.70;11.95;;;8.10;99.90;;;;;;4977902;28;20443;-84
2021/12/03 07:10:05;;;;;;;20.13;14.32;;;8.10;99.90;;;;;;4995379;28;20042;-86
2021/12/03 07:12:33;;;;;;;20.42;14.80;;;8.10;99.90;;;;;;4978702;28;20109;-85
2021/12/03 07:15:00;;;;;;;30.05;15.18;;;8.20;99.90;;;;;;4977953;28;20151;-87
2021/12/03 07:17:32;;;;;;;23.45;14.43;;;8.30;99.90;;;;;;4962535;28;20074;-87
2021/12/03 07:20:05;;;;;;;21.48;13.80;;;8.20;99.90;;;;;;4977643;28;20054;-89
2021/12/03 07:22:33;;;;;;;22.13;13.68;;;8.00;99.90;;;;;;4962748;28;20148;-89
2021/12/03 07:25:00;;;;;;;20.15;14.20;;;8.20;99.90;;;;;;4983007;28;20132;-86
2021/12/03 07:27:34;;;;;;;27.42;15.63;;;8.20;99.90;;;;;;4998143;28;20045;-88
2021/12/03 07:30:30;;;;;;;22.63;15.02;;;8.20;99.90;;;;;;4998883;28;20041;-88
2021/12/03 07:33:38;;;;;;;23.55;15.90;;;8.30;99.90;;;;;;5015719;28;20145;-86
2021/12/03 07:36:36;;;;;;;21.23;13.88;;;8.40;99.90;;;;;;4982652;28;20139;-87
2021/12/03 07:39:32;;;;;;;24.48;14.35;;;8.50;99.90;;;;;;5000512;28;20073;-88
2021/12/03 07:42:10;;;;;;;21.85;14.88;;;8.40;99.90;;;;;;4998796;28;20448;-85
2021/12/03 07:44:37;;;;;;;24.08;15.15;;;8.50;99.90;;;;;;4982336;28;20461;-87
2021/12/03 07:47:05;;;;;;;23.35;15.30;;;8.50;99.90;;;;;;5015564;28;20061;-87
2021/12/03 07:49:32;;;;;;;22.10;13.35;;;8.50;99.90;;;;;;5015477;28;20038;-87
2021/12/03 07:52:00;;;;;;;20.25;15.07;;;8.60;99.90;;;;;;4981730;28;20053;-87
2021/12/03 07:54:27;;;;;;;26.63;16.13;;;8.60;99.90;;;;;;4997957;28;20434;-88
2021/12/03 07:56:54;;;;;;;22.17;15.50;;;8.50;99.90;;;;;;4997694;28;20100;-89
2021/12/03 07:59:22;;;;;;;24.95;15.90;;;8.50;99.90;;;;;;5014705;28;20041;-85
2021/12/03 08:01:49;;;;;;;26.95;17.23;;;8.60;99.90;;;;;;5013853;28;20046;-83
2021/12/03 08:04:17;;;;;;;23.08;15.50;;;8.60;99.90;;;;;;4996762;28;20096;-85
2021/12/03 08:06:47;;;;;;;23.20;15.43;;;8.40;99.90;;;;;;4996463;28;20496;-84
2021/12/03 08:09:15;;;;;;;27.30;17.40;;;8.60;99.90;;;;;;4997044;28;20045;-89
2021/12/03 08:11:42;;;;;;;21.45;14.05;;;8.50;99.90;;;;;;4980530;28;20045;-84
2021/12/03 08:14:10;;;;;;;20.60;15.27;;;8.40;99.90;;;;;;5015255;28;20120;-87
2021/12/03 08:16:38;;;;;;;22.38;15.38;;;8.50;99.90;;;;;;4981239;28;20060;-89
2021/12/03 08:19:06;;;;;;;24.20;14.40;;;8.60;99.90;;;;;;4998228;28;20080;-89
2021/12/03 08:21:34;;;;;;;21.13;15.30;;;8.60;99.90;;;;;;4997477;28;20076;-83
2021/12/03 08:24:01;;;;;;;26.08;15.50;;;8.70;99.90;;;;;;5014932;28;20065;-84
2021/12/03 08:26:29;;;;;;;27.42;17.20;;;8.80;99.90;;;;;;4982038;28;20125;-88
2021/12/03 08:28:57;;;;;;;22.75;17.33;;;8.90;99.90;;;;;;4978212;28;20042;-83
2021/12/03 08:31:24;;;;;;;24.33;17.10;;;8.90;99.90;;;;;;4994815;28;20058;-84
2021/12/03 08:33:52;;;;;;;20.20;15.05;;;9.10;99.90;;;;;;4994638;28;20473;-86
2021/12/03 08:36:20;;;;;;;25.80;15.18;;;9.40;99.90;;;;;;4977266;28;20056;-87
2021/12/03 08:38:48;;;;;;;23.17;16.67;;;9.50;99.90;;;;;;4995458;28;20034;-89
2021/12/03 08:41:17;;;;;;;23.73;14.95;;;9.60;99.90;;;;;;4961797;28;20068;-91
2021/12/03 08:43:48;;;;;;;24.00;15.07;;;9.70;99.90;;;;;;4977620;28;20076;-85
2021/12/03 08:46:25;;;;;;;19.33;14.00;;;9.90;99.90;;;;;;4977297;28;20053;-90
2021/12/03 08:48:53;;;;;;;24.83;15.50;;;9.70;99.90;;;;;;4961399;28;20058;-86
2021/12/03 08:51:27;;;;;;;27.58;17.95;;;9.40;99.90;;;;;;4960891;28;20122;-84
2021/12/03 08:56:40;;;;;;;19.00;13.80;;;9.30;99.90;;;;;;4993164;28;20101;-86
2021/12/03 08:59:08;;;;;;;23.73;15.70;;;9.70;99.90;;;;;;4994626;28;20046;-88
2021/12/03 09:01:35;;;;;;;24.88;16.73;;;10.00;99.90;;;;;;4960662;28;20074;-87
2021/12/03 09:04:04;;;;;;;25.85;15.15;;;10.10;99.90;;;;;;4960993;28;20339;-87
2021/12/03 09:06:32;;;;;;;25.95;15.55;;;9.90;99.90;;;;;;4993375;28;20521;-85
2021/12/03 09:08:59;;;;;;;21.75;14.80;;;10.00;99.90;;;;;;4977097;28;20054;-88
2021/12/03 09:11:29;;;;;;;24.65;16.77;;;10.20;99.90;;;;;;4977738;28;20141;-90
2021/12/03 09:13:59;;;;;;;21.25;15.02;;;10.50;99.90;;;;;;4977222;28;20150;-87
2021/12/03 09:16:28;;;;;;;20.70;15.25;;;10.70;99.90;;;;;;4993719;28;20121;-89
2021/12/03 09:18:57;;;;;;;22.35;16.70;;;10.80;99.90;;;;;;4994075;28;20046;-87
2021/12/03 09:21:27;;;;;;;24.15;15.95;;;10.80;99.90;;;;;;4960487;28;20141;-87
2021/12/03 09:26:38;;;;;;;21.30;16.10;;;11.00;99.90;;;;;;4989391;28;20108;-86
2021/12/03 09:29:08;;;;;;;23.60;16.05;;;11.20;99.90;;;;;;5013104;28;20405;-86
2021/12/03 09:31:37;;;;;;;20.70;13.98;;;11.20;99.90;;;;;;4994658;28;20577;-85
2021/12/03 09:34:10;;;;;;;19.88;13.82;;;11.30;99.90;;;;;;4995686;28;20069;-87
2021/12/03 09:36:42;;;;;;;20.70;14.27;;;11.00;99.90;;;;;;4995108;28;20049;-87
2021/12/03 09:39:18;;;;;;;21.48;14.43;;;10.90;99.90;;;;;;4995891;28;20465;-85
2021/12/03 09:41:50;;;;;;;16.45;12.20;;;11.10;99.90;;;;;;5012914;28;20046;-89
2021/12/03 09:44:19;;;;;;;21.77;14.48;;;11.20;99.90;;;;;;4996508;28;20068;-87
2021/12/03 09:46:47;;;;;;;27.15;15.40;;;11.40;99.90;;;;;;4979496;28;20058;-81
2021/12/03 09:49:28;;;;;;;22.48;14.05;;;11.60;99.90;;;;;;4998085;28;20093;-85
2021/12/03 09:54:45;;;;;;;19.15;12.85;;;12.10;99.90;;;;;;4976168;28;20047;-85
2021/12/03 09:57:23;;;;;;;24.73;15.10;;;11.90;99.90;;;;;;4961671;28;20047;-90
2021/12/03 10:06:46;;;;;;;16.73;12.75;;;12.80;99.90;;;;;;5050974;23;20606;-90
2021/12/03 10:19:28;;;;;;;19.50;12.85;;;12.40;99.90;;;;;;4999686;28;20133;-90
2021/12/03 10:24:55;;;;;;;20.45;13.95;;;11.90;99.90;;;;;;4982058;28;20050;-86
2021/12/03 10:33:38;;;;;;;25.77;15.38;;;12.30;99.90;;;;;;4979801;28;20109;-89
2021/12/03 10:41:54;;;;;;;19.88;14.20;;;12.20;99.90;;;;;;4980328;28;20057;-87
2021/12/03 11:40:00;;;;;;;18.55;9.98;;;11.80;99.90;;;;;;4977978;28;20054;-86
2021/12/03 12:27:09;;;;;;;11.68;6.55;;;12.00;99.90;;;;;;4994278;28;20050;-87
2021/12/03 13:25:43;;;;;;;11.68;5.90;;;12.10;99.90;;;;;;4959634;28;20042;-92
2021/12/03 14:36:21;;;;;;;21.55;13.27;;;11.30;99.90;;;;;;4977615;23;20127;-86
2021/12/03 14:39:06;;;;;;;23.20;13.43;;;11.20;99.90;;;;;;4943795;23;20385;-88
2021/12/03 14:44:36;;;;;;;23.25;13.63;;;11.40;99.90;;;;;;4975646;28;20053;-82
2021/12/03 14:52:46;;;;;;;23.17;16.63;;;11.50;99.90;;;;;;4974186;28;20101;-84
2021/12/03 14:55:27;;;;;;;18.02;11.55;;;11.60;99.90;;;;;;4994514;28;20042;-80
2021/12/03 14:58:15;;;;;;;18.27;9.63;;;11.90;99.90;;;;;;4991196;28;20120;-82
2021/12/03 15:00:54;;;;;;;20.33;10.23;;;11.80;99.90;;;;;;4975797;28;20046;-83
2021/12/03 15:09:12;;;;;;;14.68;9.98;;;11.40;99.90;;;;;;4992795;28;20042;-88
2021/12/03 15:12:12;;;;;;;22.40;11.63;;;11.40;99.90;;;;;;4956212;28;20045;-90
2021/12/03 15:21:14;;;;;;;19.10;11.68;;;11.20;99.90;;;;;;4962592;28;20054;-88
2021/12/03 15:31:56;;;;;;;6.30;4.95;;;10.00;99.90;;;;;;5017102;28;20129;-87
2021/12/03 16:08:47;;;;;;;5.78;4.00;;;8.20;99.90;;;;;;4985208;23;20050;-89
2021/12/03 16:46:30;;;;;;;6.38;4.00;;;7.70;99.90;;;;;;4983203;28;20061;-90
2021/12/03 16:51:54;;;;;;;7.95;4.90;;;7.70;99.90;;;;;;4940271;29;20098;-91
2021/12/03 16:54:45;;;;;;;6.68;4.32;;;7.70;99.90;;;;;;4942936;29;20046;-89
2021/12/03 16:57:14;;;;;;;;;;;7.70;99.90;;;;;;4945238;28;20114;-80
2021/12/03 16:59:44;;;;;;;7.00;5.60;;;7.90;99.90;;;;;;4972000;28;19973;-82
2021/12/03 17:02:20;;;;;;;44.88;23.50;;;7.90;99.90;;;;;;4984716;28;20462;-81
2021/12/03 17:16:20;;;;;;;5.82;4.68;;;8.00;99.90;;;;;;4942289;29;20047;-90
2021/12/03 17:22:13;;;;;;;6.97;5.47;;;7.80;99.90;;;;;;4955255;29;20051;-86
2021/12/03 18:01:19;;;;;;;9.32;5.13;;;7.50;99.90;;;;;;4938837;29;20157;-90
